sensor_id;sensor_type;location;lat;lon;timestamp;pressure;altitude;pressure_sealevel;temperature;humidity
72548;BME280;60570;50.848;6.776;2023-06-14T00:00:26;100197.94;;;24.55;37.09
72548;BME280;60570;50.848;6.776;2023-06-14T00:01:28;100199.97;;;24.54;36.57
72548;BME280;60570;50.848;6.776;2023-06-14T00:02:29;100189.84;;;24.53;36.25
72548;BME280;60570;50.848;6.776;2023-06-14T00:03:30;100191.06;;;24.52;36.56
72548;BME280;60570;50.848;6.776;2023-06-14T00:04:32;100194.72;;;24.53;36.69
72548;BME280;60570;50.848;6.776;2023-06-14T00:05:34;100200.84;;;24.51;36.81
72548;BME280;60570;50.848;6.776;2023-06-14T00:06:39;100199.22;;;24.50;36.48
72548;BME280;60570;50.848;6.776;2023-06-14T00:07:43;100197.19;;;24.51;36.50
72548;BME280;60570;50.848;6.776;2023-06-14T00:08:43;100191.97;;;24.49;36.41
72548;BME280;60570;50.848;6.776;2023-06-14T00:09:45;100200.50;;;24.49;36.94
72548;BME280;60570;50.848;6.776;2023-06-14T00:10:46;100197.66;;;24.49;36.72
72548;BME280;60570;50.848;6.776;2023-06-14T00:11:48;100195.25;;;24.48;36.75
72548;BME280;60570;50.848;6.776;2023-06-14T00:12:49;100192.41;;;24.48;36.65
72548;BME280;60570;50.848;6.776;2023-06-14T00:13:50;100194.88;;;24.46;36.97
72548;BME280;60570;50.848;6.776;2023-06-14T00:14:51;100194.88;;;24.46;36.84
72548;BME280;60570;50.848;6.776;2023-06-14T00:15:53;100189.19;;;24.46;37.05
72548;BME280;60570;50.848;6.776;2023-06-14T00:16:55;100192.81;;;24.46;37.00
72548;BME280;60570;50.848;6.776;2023-06-14T00:17:58;100194.88;;;24.46;36.98
72548;BME280;60570;50.848;6.776;2023-06-14T00:19:01;100193.28;;;24.45;37.10
72548;BME280;60570;50.848;6.776;2023-06-14T00:20:05;100202.22;;;24.43;37.22
72548;BME280;60570;50.848;6.776;2023-06-14T00:21:08;100201.00;;;24.44;36.93
72548;BME280;60570;50.848;6.776;2023-06-14T00:22:10;100202.22;;;24.43;36.83
72548;BME280;60570;50.848;6.776;2023-06-14T00:23:12;100209.94;;;24.43;36.93
72548;BME280;60570;50.848;6.776;2023-06-14T00:24:14;100214.84;;;24.42;36.63
72548;BME280;60570;50.848;6.776;2023-06-14T00:25:14;100210.38;;;24.41;36.53
72548;BME280;60570;50.848;6.776;2023-06-14T00:26:16;100209.56;;;24.41;36.72
72548;BME280;60570;50.848;6.776;2023-06-14T00:27:17;100205.16;;;24.40;36.90
72548;BME280;60570;50.848;6.776;2023-06-14T00:28:19;100209.22;;;24.39;36.87
72548;BME280;60570;50.848;6.776;2023-06-14T00:29:20;100216.50;;;24.40;37.16
72548;BME280;60570;50.848;6.776;2023-06-14T00:30:22;100212.06;;;24.39;37.01
72548;BME280;60570;50.848;6.776;2023-06-14T00:31:23;100215.69;;;24.39;36.92
72548;BME280;60570;50.848;6.776;2023-06-14T00:32:25;100221.81;;;24.38;36.89
72548;BME280;60570;50.848;6.776;2023-06-14T00:33:26;100217.38;;;24.37;37.14
72548;BME280;60570;50.848;6.776;2023-06-14T00:34:27;100217.38;;;24.37;36.95
72548;BME280;60570;50.848;6.776;2023-06-14T00:35:28;100217.00;;;24.35;37.03
72548;BME280;60570;50.848;6.776;2023-06-14T00:36:30;100214.97;;;24.35;37.03
72548;BME280;60570;50.848;6.776;2023-06-14T00:37:31;100213.78;;;24.33;37.16
72548;BME280;60570;50.848;6.776;2023-06-14T00:38:34;100218.69;;;24.32;36.91
72548;BME280;60570;50.848;6.776;2023-06-14T00:39:34;100213.78;;;24.33;37.20
72548;BME280;60570;50.848;6.776;2023-06-14T00:40:36;100220.72;;;24.32;37.30
72548;BME280;60570;50.848;6.776;2023-06-14T00:41:36;100217.06;;;24.31;36.93
72548;BME280;60570;50.848;6.776;2023-06-14T00:42:38;100215.50;;;24.30;37.09
72548;BME280;60570;50.848;6.776;2023-06-14T00:43:39;100218.78;;;24.29;37.01
72548;BME280;60570;50.848;6.776;2023-06-14T00:44:40;100216.72;;;24.29;36.76
72548;BME280;60570;50.848;6.776;2023-06-14T00:45:41;100219.19;;;24.27;37.37
72548;BME280;60570;50.848;6.776;2023-06-14T00:46:43;100214.31;;;24.28;37.05
72548;BME280;60570;50.848;6.776;2023-06-14T00:47:45;100218.41;;;24.27;37.01
72548;BME280;60570;50.848;6.776;2023-06-14T00:48:48;100216.78;;;24.26;37.18
72548;BME280;60570;50.848;6.776;2023-06-14T00:49:49;100221.25;;;24.27;37.08
72548;BME280;60570;50.848;6.776;2023-06-14T00:50:52;100220.88;;;24.25;37.14
72548;BME280;60570;50.848;6.776;2023-06-14T00:51:53;100220.88;;;24.25;37.10
72548;BME280;60570;50.848;6.776;2023-06-14T00:52:55;100220.06;;;24.24;37.47
72548;BME280;60570;50.848;6.776;2023-06-14T00:53:57;100219.69;;;24.22;37.22
72548;BME280;60570;50.848;6.776;2023-06-14T00:54:59;100217.66;;;24.23;37.13
72548;BME280;60570;50.848;6.776;2023-06-14T00:56:00;100218.09;;;24.21;37.50
72548;BME280;60570;50.848;6.776;2023-06-14T00:57:02;100222.19;;;24.20;37.62
72548;BME280;60570;50.848;6.776;2023-06-14T00:58:03;100218.53;;;24.20;37.54
72548;BME280;60570;50.848;6.776;2023-06-14T00:59:05;100226.22;;;24.19;36.95
72548;BME280;60570;50.848;6.776;2023-06-14T01:00:07;100225.47;;;24.19;37.39
72548;BME280;60570;50.848;6.776;2023-06-14T01:01:10;100221.81;;;24.18;37.34
72548;BME280;60570;50.848;6.776;2023-06-14T01:02:11;100236.44;;;24.17;37.24
72548;BME280;60570;50.848;6.776;2023-06-14T01:03:15;100231.97;;;24.16;37.61
72548;BME280;60570;50.848;6.776;2023-06-14T01:04:22;100234.03;;;24.15;37.18
72548;BME280;60570;50.848;6.776;2023-06-14T01:05:24;100236.88;;;24.15;37.73
72548;BME280;60570;50.848;6.776;2023-06-14T01:06:28;100233.25;;;24.15;37.59
72548;BME280;60570;50.848;6.776;2023-06-14T01:07:40;100232.44;;;24.14;37.57
72548;BME280;60570;50.848;6.776;2023-06-14T01:08:47;100238.53;;;24.13;37.97
72548;BME280;60570;50.848;6.776;2023-06-14T01:10:03;100225.56;;;24.12;37.49
72548;BME280;60570;50.848;6.776;2023-06-14T01:11:10;100231.25;;;24.12;37.69
72548;BME280;60570;50.848;6.776;2023-06-14T01:12:16;100232.50;;;24.11;37.70
72548;BME280;60570;50.848;6.776;2023-06-14T01:13:21;100232.50;;;24.11;37.73
72548;BME280;60570;50.848;6.776;2023-06-14T01:14:23;100241.47;;;24.09;37.73
72548;BME280;60570;50.848;6.776;2023-06-14T01:15:26;100235.78;;;24.09;37.55
72548;BME280;60570;50.848;6.776;2023-06-14T01:16:31;100240.66;;;24.09;37.70
72548;BME280;60570;50.848;6.776;2023-06-14T01:17:33;100235.41;;;24.07;37.68
72548;BME280;60570;50.848;6.776;2023-06-14T01:18:36;100241.09;;;24.07;37.51
72548;BME280;60570;50.848;6.776;2023-06-14T01:19:37;100235.81;;;24.06;37.81
72548;BME280;60570;50.848;6.776;2023-06-14T01:20:39;100243.56;;;24.05;37.77
72548;BME280;60570;50.848;6.776;2023-06-14T01:21:40;100239.91;;;24.05;37.58
72548;BME280;60570;50.848;6.776;2023-06-14T01:22:50;100241.94;;;24.04;37.69
72548;BME280;60570;50.848;6.776;2023-06-14T01:23:51;100241.13;;;24.03;38.04
72548;BME280;60570;50.848;6.776;2023-06-14T01:24:55;100240.34;;;24.03;37.49
72548;BME280;60570;50.848;6.776;2023-06-14T01:25:55;100236.69;;;24.02;37.61
72548;BME280;60570;50.848;6.776;2023-06-14T01:26:57;100232.25;;;24.01;37.81
72548;BME280;60570;50.848;6.776;2023-06-14T01:28:02;100244.41;;;24.02;37.90
72548;BME280;60570;50.848;6.776;2023-06-14T01:29:05;100246.44;;;24.01;37.59
72548;BME280;60570;50.848;6.776;2023-06-14T01:30:08;100249.69;;;24.00;38.05
72548;BME280;60570;50.848;6.776;2023-06-14T01:31:11;100243.22;;;23.99;37.95
72548;BME280;60570;50.848;6.776;2023-06-14T01:32:13;100242.84;;;23.97;38.14
72548;BME280;60570;50.848;6.776;2023-06-14T01:33:17;100244.06;;;23.96;37.85
72548;BME280;60570;50.848;6.776;2023-06-14T01:34:19;100241.22;;;23.96;37.60
72548;BME280;60570;50.848;6.776;2023-06-14T01:35:20;100252.22;;;23.94;38.01
72548;BME280;60570;50.848;6.776;2023-06-14T01:36:22;100247.34;;;23.95;37.71
72548;BME280;60570;50.848;6.776;2023-06-14T01:37:26;100249.38;;;23.94;37.99
72548;BME280;60570;50.848;6.776;2023-06-14T01:38:29;100250.63;;;23.93;37.96
72548;BME280;60570;50.848;6.776;2023-06-14T01:39:32;100255.94;;;23.91;38.28
72548;BME280;60570;50.848;6.776;2023-06-14T01:40:34;100253.88;;;23.92;38.21
72548;BME280;60570;50.848;6.776;2023-06-14T01:41:36;100249.06;;;23.89;37.93
72548;BME280;60570;50.848;6.776;2023-06-14T01:42:38;100253.94;;;23.88;38.23
72548;BME280;60570;50.848;6.776;2023-06-14T01:43:41;100252.34;;;23.87;38.22
72548;BME280;60570;50.848;6.776;2023-06-14T01:44:42;100257.22;;;23.87;37.99
72548;BME280;60570;50.848;6.776;2023-06-14T01:45:47;100255.63;;;23.86;38.45
72548;BME280;60570;50.848;6.776;2023-06-14T01:46:49;100251.97;;;23.85;38.09
72548;BME280;60570;50.848;6.776;2023-06-14T01:47:51;100256.03;;;23.84;38.15
72548;BME280;60570;50.848;6.776;2023-06-14T01:48:52;100258.09;;;23.84;37.86
72548;BME280;60570;50.848;6.776;2023-06-14T01:49:54;100251.63;;;23.83;38.22
72548;BME280;60570;50.848;6.776;2023-06-14T01:50:55;100250.00;;;23.82;38.13
72548;BME280;60570;50.848;6.776;2023-06-14T01:51:56;100256.47;;;23.83;38.19
72548;BME280;60570;50.848;6.776;2023-06-14T01:52:57;100258.94;;;23.81;38.54
72548;BME280;60570;50.848;6.776;2023-06-14T01:54:01;100246.78;;;23.80;38.20
72548;BME280;60570;50.848;6.776;2023-06-14T01:55:01;100254.50;;;23.80;38.18
72548;BME280;60570;50.848;6.776;2023-06-14T01:56:04;100248.03;;;23.79;38.19
72548;BME280;60570;50.848;6.776;2023-06-14T01:57:05;100252.09;;;23.78;38.36
72548;BME280;60570;50.848;6.776;2023-06-14T01:58:08;100251.31;;;23.78;38.27
72548;BME280;60570;50.848;6.776;2023-06-14T01:59:08;100249.69;;;23.77;38.27
72548;BME280;60570;50.848;6.776;2023-06-14T02:00:12;100255.38;;;23.77;38.37
72548;BME280;60570;50.848;6.776;2023-06-14T02:01:13;100250.13;;;23.75;38.25
72548;BME280;60570;50.848;6.776;2023-06-14T02:02:16;100250.13;;;23.75;38.27
72548;BME280;60570;50.848;6.776;2023-06-14T02:03:17;100257.81;;;23.75;38.23
72548;BME280;60570;50.848;6.776;2023-06-14T02:04:19;100250.56;;;23.74;38.47
72548;BME280;60570;50.848;6.776;2023-06-14T02:05:20;100251.78;;;23.73;38.33
72548;BME280;60570;50.848;6.776;2023-06-14T02:06:22;100253.84;;;23.72;38.30
72548;BME280;60570;50.848;6.776;2023-06-14T02:07:22;100249.38;;;23.71;38.13
72548;BME280;60570;50.848;6.776;2023-06-14T02:08:24;100251.41;;;23.71;38.33
72548;BME280;60570;50.848;6.776;2023-06-14T02:09:28;100249.81;;;23.70;38.55
72548;BME280;60570;50.848;6.776;2023-06-14T02:10:30;100251.41;;;23.71;38.36
72548;BME280;60570;50.848;6.776;2023-06-14T02:11:31;100254.69;;;23.69;38.69
72548;BME280;60570;50.848;6.776;2023-06-14T02:12:32;100243.34;;;23.69;38.48
72548;BME280;60570;50.848;6.776;2023-06-14T02:13:33;100245.38;;;23.69;38.63
72548;BME280;60570;50.848;6.776;2023-06-14T02:14:35;100248.19;;;23.69;38.27
72548;BME280;60570;50.848;6.776;2023-06-14T02:15:36;100251.47;;;23.67;38.32
72548;BME280;60570;50.848;6.776;2023-06-14T02:16:37;100247.81;;;23.67;38.67
72548;BME280;60570;50.848;6.776;2023-06-14T02:17:39;100244.22;;;23.66;38.33
72548;BME280;60570;50.848;6.776;2023-06-14T02:18:40;100248.25;;;23.65;38.44
72548;BME280;60570;50.848;6.776;2023-06-14T02:19:41;100244.63;;;23.65;38.80
72548;BME280;60570;50.848;6.776;2023-06-14T02:20:43;100247.44;;;23.65;38.71
72548;BME280;60570;50.848;6.776;2023-06-14T02:21:44;100251.09;;;23.65;38.56
72548;BME280;60570;50.848;6.776;2023-06-14T02:22:46;100247.88;;;23.63;38.45
72548;BME280;60570;50.848;6.776;2023-06-14T02:23:47;100248.31;;;23.62;38.46
72548;BME280;60570;50.848;6.776;2023-06-14T02:24:50;100244.69;;;23.61;38.64
72548;BME280;60570;50.848;6.776;2023-06-14T02:25:51;100251.59;;;23.60;38.44
72548;BME280;60570;50.848;6.776;2023-06-14T02:26:53;100247.16;;;23.59;38.62
72548;BME280;60570;50.848;6.776;2023-06-14T02:27:53;100251.59;;;23.60;38.51
72548;BME280;60570;50.848;6.776;2023-06-14T02:28:56;100253.63;;;23.60;38.62
72548;BME280;60570;50.848;6.776;2023-06-14T02:29:56;100250.41;;;23.58;38.79
72548;BME280;60570;50.848;6.776;2023-06-14T02:30:58;100253.25;;;23.58;38.49
72548;BME280;60570;50.848;6.776;2023-06-14T02:31:59;100249.59;;;23.57;38.37
72548;BME280;60570;50.848;6.776;2023-06-14T02:33:00;100249.59;;;23.57;38.70
72548;BME280;60570;50.848;6.776;2023-06-14T02:34:01;100251.66;;;23.57;38.77
72548;BME280;60570;50.848;6.776;2023-06-14T02:35:04;100249.22;;;23.55;38.50
72548;BME280;60570;50.848;6.776;2023-06-14T02:36:05;100245.63;;;23.55;38.66
72548;BME280;60570;50.848;6.776;2023-06-14T02:37:07;100255.34;;;23.54;38.55
72548;BME280;60570;50.848;6.776;2023-06-14T02:38:08;100253.31;;;23.54;38.65
72548;BME280;60570;50.848;6.776;2023-06-14T02:39:10;100251.69;;;23.53;38.91
72548;BME280;60570;50.848;6.776;2023-06-14T02:40:12;100250.91;;;23.53;38.88
72548;BME280;60570;50.848;6.776;2023-06-14T02:41:14;100258.63;;;23.52;38.80
72548;BME280;60570;50.848;6.776;2023-06-14T02:42:14;100260.66;;;23.52;38.58
72548;BME280;60570;50.848;6.776;2023-06-14T02:43:16;100257.81;;;23.52;38.59
72548;BME280;60570;50.848;6.776;2023-06-14T02:44:18;100255.41;;;23.50;38.81
72548;BME280;60570;50.848;6.776;2023-06-14T02:45:20;100256.63;;;23.49;38.92
72548;BME280;60570;50.848;6.776;2023-06-14T02:46:21;100250.56;;;23.47;38.93
72548;BME280;60570;50.848;6.776;2023-06-14T02:47:23;100256.25;;;23.47;39.00
72548;BME280;60570;50.848;6.776;2023-06-14T02:48:24;100262.72;;;23.48;38.72
72548;BME280;60570;50.848;6.776;2023-06-14T02:49:26;100260.69;;;23.48;38.58
72548;BME280;60570;50.848;6.776;2023-06-14T02:50:27;100255.91;;;23.45;38.54
72548;BME280;60570;50.848;6.776;2023-06-14T02:51:30;100261.56;;;23.45;38.61
72548;BME280;60570;50.848;6.776;2023-06-14T02:52:30;100258.75;;;23.45;39.08
72548;BME280;60570;50.848;6.776;2023-06-14T02:53:33;100260.75;;;23.45;39.06
72548;BME280;60570;50.848;6.776;2023-06-14T02:54:34;100257.94;;;23.45;38.97
72548;BME280;60570;50.848;6.776;2023-06-14T02:55:37;100255.53;;;23.43;38.61
72548;BME280;60570;50.848;6.776;2023-06-14T02:56:40;100257.56;;;23.43;38.79
72548;BME280;60570;50.848;6.776;2023-06-14T02:57:41;100261.59;;;23.42;38.60
72548;BME280;60570;50.848;6.776;2023-06-14T02:58:42;100261.59;;;23.42;38.83
72548;BME280;60570;50.848;6.776;2023-06-14T02:59:44;100259.22;;;23.40;39.14
72548;BME280;60570;50.848;6.776;2023-06-14T03:00:45;100260.44;;;23.39;38.89
72548;BME280;60570;50.848;6.776;2023-06-14T03:01:46;100268.16;;;23.39;39.07
72548;BME280;60570;50.848;6.776;2023-06-14T03:02:47;100269.75;;;23.40;38.87
72548;BME280;60570;50.848;6.776;2023-06-14T03:03:49;100263.69;;;23.38;39.18
72548;BME280;60570;50.848;6.776;2023-06-14T03:04:49;100266.53;;;23.38;39.06
72548;BME280;60570;50.848;6.776;2023-06-14T03:05:51;100268.59;;;23.37;38.93
72548;BME280;60570;50.848;6.776;2023-06-14T03:06:52;100267.78;;;23.37;38.83
72548;BME280;60570;50.848;6.776;2023-06-14T03:07:54;100270.59;;;23.37;38.83
72548;BME280;60570;50.848;6.776;2023-06-14T03:08:55;100273.88;;;23.35;39.01
72548;BME280;60570;50.848;6.776;2023-06-14T03:09:57;100272.25;;;23.34;39.13
72548;BME280;60570;50.848;6.776;2023-06-14T03:10:59;100267.03;;;23.33;38.93
72548;BME280;60570;50.848;6.776;2023-06-14T03:12:03;100265.41;;;23.32;39.18
72548;BME280;60570;50.848;6.776;2023-06-14T03:13:03;100272.69;;;23.33;39.18
72548;BME280;60570;50.848;6.776;2023-06-14T03:14:05;100277.56;;;23.32;38.92
72548;BME280;60570;50.848;6.776;2023-06-14T03:15:08;100279.19;;;23.30;39.02
72548;BME280;60570;50.848;6.776;2023-06-14T03:16:11;100269.06;;;23.29;38.88
72548;BME280;60570;50.848;6.776;2023-06-14T03:17:12;100278.38;;;23.29;38.96
72548;BME280;60570;50.848;6.776;2023-06-14T03:18:14;100280.41;;;23.29;39.07
72548;BME280;60570;50.848;6.776;2023-06-14T03:19:15;100273.56;;;23.26;39.06
72548;BME280;60570;50.848;6.776;2023-06-14T03:20:17;100282.06;;;23.26;39.15
72548;BME280;60570;50.848;6.776;2023-06-14T03:21:17;100279.22;;;23.26;38.84
72548;BME280;60570;50.848;6.776;2023-06-14T03:22:20;100281.28;;;23.26;39.08
72548;BME280;60570;50.848;6.776;2023-06-14T03:23:22;100286.16;;;23.25;39.07
72548;BME280;60570;50.848;6.776;2023-06-14T03:24:24;100280.47;;;23.25;39.15
72548;BME280;60570;50.848;6.776;2023-06-14T03:25:25;100283.75;;;23.24;38.76
72548;BME280;60570;50.848;6.776;2023-06-14T03:26:31;100284.94;;;23.23;38.86
72548;BME280;60570;50.848;6.776;2023-06-14T03:27:31;100281.31;;;23.22;38.95
72548;BME280;60570;50.848;6.776;2023-06-14T03:28:33;100279.72;;;23.21;39.05
72548;BME280;60570;50.848;6.776;2023-06-14T03:29:34;100284.56;;;23.21;38.78
72548;BME280;60570;50.848;6.776;2023-06-14T03:30:35;100283.75;;;23.20;38.97
72548;BME280;60570;50.848;6.776;2023-06-14T03:31:39;100283.75;;;23.20;38.88
72548;BME280;60570;50.848;6.776;2023-06-14T03:32:41;100280.16;;;23.20;39.13
72548;BME280;60570;50.848;6.776;2023-06-14T03:33:42;100278.53;;;23.18;39.01
72548;BME280;60570;50.848;6.776;2023-06-14T03:34:43;100284.19;;;23.18;39.12
72548;BME280;60570;50.848;6.776;2023-06-14T03:35:45;100280.56;;;23.18;38.85
72548;BME280;60570;50.848;6.776;2023-06-14T03:36:47;100282.59;;;23.17;38.99
72548;BME280;60570;50.848;6.776;2023-06-14T03:37:49;100285.88;;;23.16;39.12
72548;BME280;60570;50.848;6.776;2023-06-14T03:38:51;100283.03;;;23.16;39.00
72548;BME280;60570;50.848;6.776;2023-06-14T03:39:53;100284.25;;;23.15;38.93
72548;BME280;60570;50.848;6.776;2023-06-14T03:40:54;100288.72;;;23.12;39.30
72548;BME280;60570;50.848;6.776;2023-06-14T03:41:57;100291.94;;;23.14;39.01
72548;BME280;60570;50.848;6.776;2023-06-14T03:42:58;100286.72;;;23.13;38.88
72548;BME280;60570;50.848;6.776;2023-06-14T03:44:00;100291.56;;;23.12;39.14
72548;BME280;60570;50.848;6.776;2023-06-14T03:45:00;100292.38;;;23.13;39.01
72548;BME280;60570;50.848;6.776;2023-06-14T03:46:02;100291.56;;;23.12;38.99
72548;BME280;60570;50.848;6.776;2023-06-14T03:47:03;100297.66;;;23.11;39.09
72548;BME280;60570;50.848;6.776;2023-06-14T03:48:05;100293.25;;;23.10;39.13
72548;BME280;60570;50.848;6.776;2023-06-14T03:49:07;100293.25;;;23.10;39.09
72548;BME280;60570;50.848;6.776;2023-06-14T03:50:09;100292.88;;;23.08;39.03
72548;BME280;60570;50.848;6.776;2023-06-14T03:51:10;100295.69;;;23.08;38.95
72548;BME280;60570;50.848;6.776;2023-06-14T03:52:12;100290.81;;;23.08;39.05
72548;BME280;60570;50.848;6.776;2023-06-14T03:53:14;100299.75;;;23.07;38.79
72548;BME280;60570;50.848;6.776;2023-06-14T03:54:16;100304.22;;;23.04;38.99
72548;BME280;60570;50.848;6.776;2023-06-14T03:55:16;100304.22;;;23.04;39.09
72548;BME280;60570;50.848;6.776;2023-06-14T03:56:18;100297.41;;;23.02;39.03
72548;BME280;60570;50.848;6.776;2023-06-14T03:57:20;100303.88;;;23.02;39.23
72548;BME280;60570;50.848;6.776;2023-06-14T03:58:22;100302.25;;;23.01;39.39
72548;BME280;60570;50.848;6.776;2023-06-14T03:59:23;100291.34;;;23.00;39.01
72548;BME280;60570;50.848;6.776;2023-06-14T04:00:26;100299.84;;;23.00;38.74
72548;BME280;60570;50.848;6.776;2023-06-14T04:01:27;100305.53;;;23.00;39.39
72548;BME280;60570;50.848;6.776;2023-06-14T04:02:32;100298.22;;;22.99;39.10
72548;BME280;60570;50.848;6.776;2023-06-14T04:03:33;100303.91;;;22.99;39.54
72548;BME280;60570;50.848;6.776;2023-06-14T04:04:35;100300.69;;;22.97;39.04
72548;BME280;60570;50.848;6.776;2023-06-14T04:05:36;100301.94;;;22.96;39.10
72548;BME280;60570;50.848;6.776;2023-06-14T04:06:37;100306.78;;;22.95;39.12
72548;BME280;60570;50.848;6.776;2023-06-14T04:07:38;100300.31;;;22.95;39.42
72548;BME280;60570;50.848;6.776;2023-06-14T04:08:45;100300.75;;;22.93;39.22
72548;BME280;60570;50.848;6.776;2023-06-14T04:09:46;100306.41;;;22.93;39.32
72548;BME280;60570;50.848;6.776;2023-06-14T04:10:48;100312.88;;;22.94;39.27
72548;BME280;60570;50.848;6.776;2023-06-14T04:11:48;100313.72;;;22.91;39.35
72548;BME280;60570;50.848;6.776;2023-06-14T04:12:51;100314.53;;;22.91;38.90
72548;BME280;60570;50.848;6.776;2023-06-14T04:13:52;100314.97;;;22.90;39.28
72548;BME280;60570;50.848;6.776;2023-06-14T04:14:56;100317.78;;;22.90;39.52
72548;BME280;60570;50.848;6.776;2023-06-14T04:15:57;100314.97;;;22.90;39.53
72548;BME280;60570;50.848;6.776;2023-06-14T04:16:59;100319.00;;;22.89;39.69
72548;BME280;60570;50.848;6.776;2023-06-14T04:18:00;100316.16;;;22.89;39.49
72548;BME280;60570;50.848;6.776;2023-06-14T04:19:01;100318.22;;;22.88;39.45
72548;BME280;60570;50.848;6.776;2023-06-14T04:20:03;100318.66;;;22.87;39.71
72548;BME280;60570;50.848;6.776;2023-06-14T04:21:06;100327.16;;;22.87;39.58
72548;BME280;60570;50.848;6.776;2023-06-14T04:22:09;100322.69;;;22.86;39.43
72548;BME280;60570;50.848;6.776;2023-06-14T04:23:12;100324.72;;;22.85;39.47
72548;BME280;60570;50.848;6.776;2023-06-14T04:24:13;100315.44;;;22.85;39.73
72548;BME280;60570;50.848;6.776;2023-06-14T04:25:15;100327.16;;;22.83;39.48
72548;BME280;60570;50.848;6.776;2023-06-14T04:26:16;100313.00;;;22.83;39.44
72548;BME280;60570;50.848;6.776;2023-06-14T04:27:17;100328.78;;;22.84;39.41
72548;BME280;60570;50.848;6.776;2023-06-14T04:28:23;100324.34;;;22.83;39.49
72548;BME280;60570;50.848;6.776;2023-06-14T04:29:27;100326.38;;;22.83;39.75
72548;BME280;60570;50.848;6.776;2023-06-14T04:30:29;100319.09;;;22.82;39.59
72548;BME280;60570;50.848;6.776;2023-06-14T04:31:32;100323.16;;;22.81;39.40
72548;BME280;60570;50.848;6.776;2023-06-14T04:32:34;100324.38;;;22.80;39.82
72548;BME280;60570;50.848;6.776;2023-06-14T04:33:39;100328.03;;;22.80;39.55
72548;BME280;60570;50.848;6.776;2023-06-14T04:34:43;100331.66;;;22.81;39.88
72548;BME280;60570;50.848;6.776;2023-06-14T04:35:44;100329.22;;;22.79;39.88
72548;BME280;60570;50.848;6.776;2023-06-14T04:36:47;100329.22;;;22.79;39.59
72548;BME280;60570;50.848;6.776;2023-06-14T04:37:53;100330.47;;;22.78;39.97
72548;BME280;60570;50.848;6.776;2023-06-14T04:38:54;100332.50;;;22.78;39.61
72548;BME280;60570;50.848;6.776;2023-06-14T04:39:56;100334.53;;;22.77;39.51
72548;BME280;60570;50.848;6.776;2023-06-14T04:40:57;100343.03;;;22.77;39.57
72548;BME280;60570;50.848;6.776;2023-06-14T04:42:02;100334.53;;;22.77;39.69
72548;BME280;60570;50.848;6.776;2023-06-14T04:43:03;100330.53;;;22.75;39.64
72548;BME280;60570;50.848;6.776;2023-06-14T04:44:08;100341.84;;;22.75;39.86
72548;BME280;60570;50.848;6.776;2023-06-14T04:45:10;100337.41;;;22.74;39.89
72548;BME280;60570;50.848;6.776;2023-06-14T04:46:13;100330.94;;;22.73;39.80
72548;BME280;60570;50.848;6.776;2023-06-14T04:47:15;100337.41;;;22.74;39.94
72548;BME280;60570;50.848;6.776;2023-06-14T04:48:17;100336.63;;;22.73;39.90
72548;BME280;60570;50.848;6.776;2023-06-14T04:49:19;100332.53;;;22.74;39.65
72548;BME280;60570;50.848;6.776;2023-06-14T04:50:23;100340.66;;;22.72;40.04
72548;BME280;60570;50.848;6.776;2023-06-14T04:51:24;100332.97;;;22.73;39.96
72548;BME280;60570;50.848;6.776;2023-06-14T04:52:29;100333.41;;;22.71;39.87
72548;BME280;60570;50.848;6.776;2023-06-14T04:53:30;100332.16;;;22.72;40.04
72548;BME280;60570;50.848;6.776;2023-06-14T04:54:32;100339.06;;;22.71;40.13
72548;BME280;60570;50.848;6.776;2023-06-14T04:55:34;100345.50;;;22.72;40.07
72548;BME280;60570;50.848;6.776;2023-06-14T04:56:37;100339.84;;;22.72;39.66
72548;BME280;60570;50.848;6.776;2023-06-14T04:57:38;100339.06;;;22.71;40.08
72548;BME280;60570;50.848;6.776;2023-06-14T04:58:41;100342.69;;;22.72;39.97
72548;BME280;60570;50.848;6.776;2023-06-14T04:59:43;100338.69;;;22.69;39.81
72548;BME280;60570;50.848;6.776;2023-06-14T05:00:44;100343.91;;;22.71;39.91
72548;BME280;60570;50.848;6.776;2023-06-14T05:01:45;100339.47;;;22.70;39.80
72548;BME280;60570;50.848;6.776;2023-06-14T05:02:48;100348.41;;;22.68;40.15
72548;BME280;60570;50.848;6.776;2023-06-14T05:03:49;100346.00;;;22.67;40.27
72548;BME280;60570;50.848;6.776;2023-06-14T05:04:51;100348.41;;;22.68;39.85
72548;BME280;60570;50.848;6.776;2023-06-14T05:05:52;100344.75;;;22.68;40.07
72548;BME280;60570;50.848;6.776;2023-06-14T05:06:54;100352.47;;;22.67;40.05
72548;BME280;60570;50.848;6.776;2023-06-14T05:07:55;100353.69;;;22.66;40.13
72548;BME280;60570;50.848;6.776;2023-06-14T05:08:57;100344.38;;;22.66;40.03
72548;BME280;60570;50.848;6.776;2023-06-14T05:09:57;100343.59;;;22.65;40.12
72548;BME280;60570;50.848;6.776;2023-06-14T05:10:59;100348.44;;;22.65;40.12
72548;BME280;60570;50.848;6.776;2023-06-14T05:12:00;100342.78;;;22.65;39.91
72548;BME280;60570;50.848;6.776;2023-06-14T05:14:02;100344.38;;;22.66;39.93
72548;BME280;60570;50.848;6.776;2023-06-14T05:15:06;100348.88;;;22.63;40.01
72548;BME280;60570;50.848;6.776;2023-06-14T05:17:11;100345.66;;;22.61;39.67
72548;BME280;60570;50.848;6.776;2023-06-14T05:18:12;100352.53;;;22.60;39.97
72548;BME280;60570;50.848;6.776;2023-06-14T05:19:15;100360.97;;;22.64;39.73
72548;BME280;60570;50.848;6.776;2023-06-14T05:21:19;100357.75;;;22.62;39.80
72548;BME280;60570;50.848;6.776;2023-06-14T05:22:22;100354.97;;;22.58;39.83
72548;BME280;60570;50.848;6.776;2023-06-14T05:23:22;100349.31;;;22.58;39.88
72548;BME280;60570;50.848;6.776;2023-06-14T05:24:24;100351.34;;;22.58;39.89
72548;BME280;60570;50.848;6.776;2023-06-14T05:25:25;100350.53;;;22.57;39.84
72548;BME280;60570;50.848;6.776;2023-06-14T05:26:28;100355.78;;;22.55;40.03
72548;BME280;60570;50.848;6.776;2023-06-14T05:27:29;100354.56;;;22.56;39.88